createdAt,value
2019-05-07T00:01:19.806Z,64.01
2019-05-07T00:03:50.242Z,64.21
2019-05-07T00:06:22.917Z,63.78
2019-05-07T00:08:52.987Z,64.19
2019-05-07T00:11:23.420Z,63.56
2019-05-07T00:13:53.908Z,63.39
2019-05-07T00:16:24.341Z,62.75
2019-05-07T00:18:54.819Z,63.64
2019-05-07T00:21:25.312Z,63.02
2019-05-07T00:23:55.753Z,61.96
2019-05-07T00:26:26.232Z,61.27
2019-05-07T00:28:56.665Z,61.73
2019-05-07T00:31:27.144Z,61.76
2019-05-07T00:33:57.645Z,61.75
2019-05-07T00:36:42.717Z,60.90
2019-05-07T00:39:43.975Z,60.89
2019-05-07T00:42:22.026Z,61.26
2019-05-07T00:45:19.667Z,61.13
2019-05-07T00:47:42.676Z,60.48
2019-05-07T00:50:19.085Z,60.33
2019-05-07T00:52:49.670Z,60.72
2019-05-07T00:55:20.129Z,60.42
2019-05-07T00:57:52.493Z,59.92
2019-05-07T01:00:22.980Z,60.37
2019-05-07T01:02:53.468Z,60.15
2019-05-07T01:05:24.212Z,60.54
2019-05-07T01:07:54.691Z,59.42
2019-05-07T01:10:25.127Z,59.22
2019-05-07T01:12:55.612Z,58.68
2019-05-07T01:15:31.019Z,58.13
2019-05-07T01:17:58.232Z,57.53
2019-05-07T01:20:28.662Z,57.95
2019-05-07T01:22:59.097Z,57.54
2019-05-07T01:25:29.615Z,57.15
2019-05-07T01:28:02.463Z,57.06
2019-05-07T01:30:32.684Z,57.40
2019-05-07T01:33:09.521Z,57.50
2019-05-07T01:35:57.462Z,57.56
2019-05-07T01:38:27.944Z,56.95
2019-05-07T01:40:58.681Z,57.67
2019-05-07T01:43:29.143Z,57.72
2019-05-07T01:45:59.640Z,59.07
2019-05-07T01:48:32.213Z,60.11
2019-05-07T01:51:03.471Z,60.61
2019-05-07T01:53:33.998Z,60.97
2019-05-07T01:56:04.491Z,61.44
2019-05-07T01:58:35.035Z,60.62
2019-05-07T02:01:05.627Z,60.75
2019-05-07T02:04:03.809Z,61.67
2019-05-07T02:06:59.020Z,60.89
2019-05-07T02:09:35.581Z,60.61
2019-05-07T02:12:28.134Z,60.30
2019-05-07T02:14:58.583Z,60.05
2019-05-07T02:17:29.125Z,57.89
2019-05-07T02:19:59.632Z,57.57
2019-05-07T02:22:31.997Z,56.57
2019-05-07T02:25:03.317Z,56.62
2019-05-07T02:27:33.864Z,56.73
2019-05-07T02:30:04.840Z,56.17
2019-05-07T02:32:35.252Z,55.79
2019-05-07T02:35:06.195Z,55.72
2019-05-07T02:37:56.858Z,55.74
2019-05-07T02:40:34.161Z,55.19
2019-05-07T02:43:04.759Z,55.46
2019-05-07T02:46:22.402Z,55.38
2019-05-07T02:48:54.501Z,55.30
2019-05-07T02:51:33.402Z,54.66
2019-05-07T02:54:23.776Z,55.15
2019-05-07T02:56:53.427Z,54.78
2019-05-07T02:59:23.987Z,55.07
2019-05-07T03:01:54.626Z,55.21
2019-05-07T03:04:25.469Z,55.19
2019-05-07T03:06:56.063Z,55.09
2019-05-07T03:09:26.645Z,54.76
2019-05-07T03:11:57.579Z,54.88
2019-05-07T03:14:28.064Z,55.26
2019-05-07T03:16:59.012Z,55.42
2019-05-07T03:19:29.879Z,54.68
2019-05-07T03:22:04.048Z,54.91
2019-05-07T03:24:52.969Z,55.13
2019-05-07T03:27:23.873Z,54.63
2019-05-07T03:30:17.302Z,54.75
2019-05-07T03:32:58.196Z,54.38
2019-05-07T03:35:57.180Z,54.70
2019-05-07T03:38:27.726Z,55.07
2019-05-07T03:40:58.184Z,54.86
2019-05-07T03:43:28.719Z,54.64
2019-05-07T03:46:13.997Z,55.38
2019-05-07T03:48:44.702Z,54.99
2019-05-07T03:51:15.185Z,54.85
2019-05-07T03:53:45.630Z,54.86
2019-05-07T03:56:16.082Z,54.92
2019-05-07T03:58:46.528Z,54.99
2019-05-07T04:01:17.121Z,54.59
2019-05-07T04:03:47.560Z,54.08
2019-05-07T04:06:18.038Z,54.20
2019-05-07T04:08:48.517Z,54.61
2019-05-07T04:11:18.950Z,54.97
2019-05-07T04:13:49.389Z,54.79
2019-05-07T04:16:19.835Z,54.66
2019-05-07T04:18:52.872Z,54.52
2019-05-07T04:21:23.252Z,54.37
2019-05-07T04:24:13.627Z,54.52
2019-05-07T04:26:47.123Z,54.46
2019-05-07T04:29:17.915Z,54.75
2019-05-07T04:31:48.345Z,54.51
2019-05-07T04:34:24.225Z,54.42
2019-05-07T04:36:54.664Z,53.46
2019-05-07T04:39:25.155Z,53.72
2019-05-07T04:41:55.605Z,54.37
2019-05-07T04:44:26.131Z,53.17
2019-05-07T04:46:56.577Z,52.77
2019-05-07T04:49:27.092Z,52.54
2019-05-07T04:52:19.425Z,52.79
2019-05-07T04:54:52.719Z,52.77
2019-05-07T04:57:28.254Z,52.39
2019-05-07T05:00:02.936Z,52.33
2019-05-07T05:02:52.657Z,52.21
2019-05-07T05:05:23.844Z,51.64
2019-05-07T05:07:54.649Z,52.21
2019-05-07T05:10:25.423Z,50.71
2019-05-07T05:12:55.854Z,50.63
2019-05-07T05:15:26.617Z,50.18
2019-05-07T05:17:57.099Z,50.04
2019-05-07T05:20:52.562Z,50.07
2019-05-07T05:23:47.863Z,49.89
2019-05-07T05:26:18.347Z,50.25
2019-05-07T05:28:48.917Z,49.82
2019-05-07T05:31:19.508Z,49.64
2019-05-07T05:33:50.023Z,49.46
2019-05-07T05:36:22.169Z,48.81
2019-05-07T05:38:53.558Z,48.79
2019-05-07T05:41:25.545Z,49.03
2019-05-07T05:44:06.259Z,49.08
2019-05-07T05:46:36.800Z,49.15
2019-05-07T05:49:07.413Z,49.71
2019-05-07T05:52:09.049Z,49.52
2019-05-07T05:54:58.365Z,49.36
2019-05-07T05:57:48.213Z,49.99
2019-05-07T06:00:53.938Z,50.07
2019-05-07T06:03:43.087Z,50.24
2019-05-07T06:06:29.568Z,49.33
2019-05-07T06:09:21.933Z,49.78
2019-05-07T06:12:03.816Z,49.96
2019-05-07T06:14:43.363Z,49.81
2019-05-07T06:17:35.539Z,49.82
2019-05-07T06:20:34.844Z,49.44
2019-05-07T06:23:33.083Z,49.08
2019-05-07T06:26:05.159Z,48.35
2019-05-07T06:28:35.423Z,48.67
2019-05-07T06:31:06.021Z,47.31
2019-05-07T06:33:36.651Z,47.86
2019-05-07T06:36:07.117Z,45.85
2019-05-07T06:38:44.065Z,44.75
2019-05-07T06:41:41.753Z,45.02
2019-05-07T06:44:16.500Z,43.59
2019-05-07T06:46:50.013Z,43.56
2019-05-07T06:49:22.298Z,44.03
2019-05-07T06:51:52.985Z,43.35
2019-05-07T06:54:23.346Z,42.25
2019-05-07T06:56:53.729Z,42.35
2019-05-07T06:59:35.369Z,40.97
2019-05-07T07:02:36.928Z,41.37
2019-05-07T07:05:25.824Z,40.67
2019-05-07T07:08:05.299Z,40.57
2019-05-07T07:10:53.230Z,40.77
2019-05-07T07:13:24.568Z,40.76
2019-05-07T07:15:55.035Z,39.78
2019-05-07T07:18:25.564Z,40.04
2019-05-07T07:20:56.100Z,40.44
2019-05-07T07:23:26.479Z,40.55
2019-05-07T07:25:56.923Z,41.07
2019-05-07T07:28:27.426Z,40.86
2019-05-07T07:31:22.258Z,40.30
2019-05-07T07:33:52.701Z,40.18
2019-05-07T07:36:24.811Z,40.88
2019-05-07T07:38:55.227Z,40.11
2019-05-07T07:41:34.110Z,40.25
2019-05-07T07:44:04.748Z,40.23
2019-05-07T07:46:35.155Z,40.71
2019-05-07T07:49:11.014Z,40.17
2019-05-07T07:51:42.034Z,40.44
2019-05-07T07:54:10.358Z,40.01
2019-05-07T07:56:56.337Z,39.83
2019-05-07T07:59:44.206Z,39.23
2019-05-07T08:02:32.062Z,39.21
2019-05-07T08:05:02.174Z,39.22
2019-05-07T08:07:33.144Z,39.14
2019-05-07T08:10:03.793Z,38.91
2019-05-07T08:12:34.348Z,38.72
2019-05-07T08:15:16.752Z,38.78
2019-05-07T08:17:37.805Z,38.59
2019-05-07T08:20:08.958Z,38.24
2019-05-07T08:22:39.319Z,38.22
2019-05-07T08:25:12.349Z,37.75
2019-05-07T08:27:42.240Z,37.34
2019-05-07T08:30:16.180Z,36.70
2019-05-07T08:33:03.609Z,37.58
2019-05-07T08:35:44.261Z,37.30
2019-05-07T08:38:14.915Z,37.73
2019-05-07T08:40:48.965Z,36.74
2019-05-07T08:43:21.801Z,37.66
2019-05-07T08:46:12.017Z,37.73
2019-05-07T08:48:45.781Z,37.69
2019-05-07T08:51:16.285Z,37.03
2019-05-07T08:53:48.393Z,36.60
2019-05-07T08:56:22.450Z,37.42
2019-05-07T08:58:54.758Z,36.73
2019-05-07T09:01:27.221Z,36.37
2019-05-07T09:03:57.731Z,36.74
2019-05-07T09:06:34.003Z,36.74
2019-05-07T09:09:12.819Z,36.89
2019-05-07T09:11:42.827Z,36.22
2019-05-07T09:14:13.404Z,36.76
2019-05-07T09:16:43.941Z,36.91
2019-05-07T09:19:14.434Z,36.89
2019-05-07T09:21:44.855Z,37.43
2019-05-07T09:24:15.257Z,37.06
2019-05-07T09:26:52.350Z,37.43
2019-05-07T09:29:36.549Z,37.01
2019-05-07T09:32:29.000Z,37.32
2019-05-07T09:35:02.307Z,36.96
2019-05-07T09:37:33.291Z,36.91
2019-05-07T09:40:03.708Z,37.49
2019-05-07T09:42:35.315Z,37.40
2019-05-07T09:45:06.065Z,37.35
2019-05-07T09:47:37.402Z,36.66
2019-05-07T09:50:09.034Z,36.32
2019-05-07T09:52:39.583Z,35.75
2019-05-07T09:55:16.594Z,36.21
2019-05-07T09:57:43.028Z,35.99
2019-05-07T10:00:14.676Z,35.58
2019-05-07T10:02:47.474Z,35.06
2019-05-07T10:05:22.759Z,35.47
2019-05-07T10:07:53.576Z,36.18
2019-05-07T10:10:24.206Z,36.04
2019-05-07T10:13:03.985Z,36.86
2019-05-07T10:15:34.794Z,36.82
2019-05-07T10:18:15.747Z,36.02
2019-05-07T10:20:46.387Z,36.53
2019-05-07T10:23:23.389Z,36.11
2019-05-07T10:25:54.638Z,36.48
2019-05-07T10:28:25.415Z,36.27
2019-05-07T10:30:56.089Z,35.25
2019-05-07T10:33:26.757Z,35.95
2019-05-07T10:35:57.351Z,36.13
2019-05-07T10:38:28.042Z,35.75
2019-05-07T10:40:58.784Z,36.58
2019-05-07T10:43:29.472Z,37.02
2019-05-07T10:46:21.677Z,36.76
2019-05-07T10:49:05.057Z,36.99
2019-05-07T10:51:35.545Z,36.64
2019-05-07T10:54:06.558Z,36.04
2019-05-07T10:56:37.254Z,35.32
2019-05-07T10:59:07.958Z,35.60
2019-05-07T11:01:59.708Z,35.73
2019-05-07T11:04:40.290Z,36.34
2019-05-07T11:07:02.067Z,36.15
2019-05-07T11:09:32.949Z,36.29
2019-05-07T11:12:03.475Z,36.69
2019-05-07T11:14:34.038Z,36.88
2019-05-07T11:17:26.572Z,36.41
2019-05-07T11:19:57.286Z,35.95
2019-05-07T11:22:27.811Z,36.40
2019-05-07T11:24:58.340Z,36.99
2019-05-07T11:27:33.043Z,36.11
2019-05-07T11:30:03.871Z,35.46
2019-05-07T11:32:34.310Z,35.69
2019-05-07T11:35:05.042Z,35.57
2019-05-07T11:37:35.504Z,35.80
2019-05-07T11:40:06.331Z,36.16
2019-05-07T11:43:05.591Z,35.31
2019-05-07T11:46:02.091Z,35.90
2019-05-07T11:48:36.348Z,35.84
2019-05-07T11:51:25.083Z,36.07
2019-05-07T11:54:12.642Z,36.99
2019-05-07T11:56:43.463Z,37.53
2019-05-07T11:59:13.973Z,37.10
2019-05-07T12:01:48.314Z,38.06
2019-05-07T12:04:18.899Z,38.27
2019-05-07T12:06:49.340Z,38.29
2019-05-07T12:09:21.642Z,37.55
2019-05-07T12:11:52.170Z,38.14
2019-05-07T12:14:31.354Z,38.57
2019-05-07T12:16:55.354Z,38.46
2019-05-07T12:19:25.790Z,38.72
2019-05-07T12:21:56.302Z,38.71
2019-05-07T12:24:26.762Z,39.12
2019-05-07T12:26:57.388Z,38.92
2019-05-07T12:29:28.265Z,38.98
2019-05-07T12:32:16.269Z,38.88
2019-05-07T12:34:53.679Z,39.39
2019-05-07T12:37:24.138Z,38.38
2019-05-07T12:39:55.069Z,38.04
2019-05-07T12:42:25.702Z,38.65
2019-05-07T12:44:56.211Z,38.31
2019-05-07T12:47:26.739Z,38.31
2019-05-07T12:49:57.231Z,38.84
2019-05-07T12:52:33.451Z,37.93
2019-05-07T12:55:15.842Z,37.76
2019-05-07T12:57:55.063Z,38.89
2019-05-07T13:00:46.893Z,38.16
2019-05-07T13:03:24.518Z,37.63
2019-05-07T13:05:55.628Z,37.60
2019-05-07T13:08:29.350Z,38.18
2019-05-07T13:10:59.822Z,38.61
2019-05-07T13:13:35.032Z,39.05
2019-05-07T13:16:06.356Z,39.07
2019-05-07T13:18:36.819Z,38.79
2019-05-07T13:21:11.783Z,39.48
2019-05-07T13:23:42.158Z,39.82
2019-05-07T13:26:15.468Z,39.62
2019-05-07T13:28:47.945Z,39.68
2019-05-07T13:31:22.747Z,39.50
2019-05-07T13:33:54.461Z,40.17
2019-05-07T13:36:25.694Z,40.61
2019-05-07T13:39:03.741Z,39.98
2019-05-07T13:41:57.671Z,39.45
2019-05-07T13:44:52.092Z,39.93
2019-05-07T13:47:34.383Z,40.02
2019-05-07T13:50:05.498Z,40.49
2019-05-07T13:52:36.191Z,41.52
2019-05-07T13:55:07.479Z,41.32
2019-05-07T13:57:41.669Z,41.42
2019-05-07T14:00:21.771Z,41.66
2019-05-07T14:02:52.081Z,42.18
2019-05-07T14:05:24.272Z,42.50
2019-05-07T14:07:54.875Z,42.70
2019-05-07T14:10:26.156Z,42.90
2019-05-07T14:13:07.656Z,42.55
2019-05-07T14:15:35.390Z,42.13
2019-05-07T14:18:07.148Z,41.88
2019-05-07T14:20:37.674Z,42.03
2019-05-07T14:23:09.146Z,42.46
2019-05-07T14:25:41.840Z,43.17
2019-05-07T14:28:11.866Z,43.25
2019-05-07T14:30:42.384Z,43.60
2019-05-07T14:33:18.806Z,43.49
2019-05-07T14:36:07.312Z,43.80
2019-05-07T14:38:42.616Z,43.96
2019-05-07T14:41:13.185Z,44.51
2019-05-07T14:44:01.004Z,44.00
2019-05-07T14:46:44.598Z,44.03
2019-05-07T14:49:03.854Z,44.29
2019-05-07T14:51:34.402Z,44.50
2019-05-07T14:54:05.103Z,44.61
2019-05-07T14:56:35.875Z,44.63
2019-05-07T14:59:06.546Z,44.72
2019-05-07T15:01:37.030Z,44.90
2019-05-07T15:04:07.936Z,45.35
2019-05-07T15:06:38.488Z,45.00
2019-05-07T15:09:09.100Z,45.36
2019-05-07T15:11:39.685Z,46.22
2019-05-07T15:14:12.043Z,45.60
2019-05-07T15:16:42.876Z,47.07
2019-05-07T15:19:13.410Z,47.10
2019-05-07T15:21:43.983Z,46.89
2019-05-07T15:24:15.532Z,47.56
2019-05-07T15:26:47.715Z,47.80
2019-05-07T15:29:18.301Z,47.70
2019-05-07T15:32:00.044Z,47.75
2019-05-07T15:34:29.778Z,48.84
2019-05-07T15:37:01.667Z,49.47
2019-05-07T15:39:32.828Z,48.87
2019-05-07T15:42:03.581Z,48.38
2019-05-07T15:44:34.023Z,48.53
2019-05-07T15:47:09.350Z,48.20
2019-05-07T15:49:41.724Z,48.17
2019-05-07T15:52:18.117Z,49.10
2019-05-07T15:54:48.556Z,48.67
2019-05-07T15:57:24.157Z,49.23
2019-05-07T16:00:05.580Z,49.77
2019-05-07T16:02:39.667Z,48.94
2019-05-07T16:05:13.503Z,48.32
2019-05-07T16:07:45.390Z,49.02
2019-05-07T16:10:16.045Z,48.75
2019-05-07T16:12:46.663Z,48.81
2019-05-07T16:15:17.301Z,49.00
2019-05-07T16:17:53.596Z,49.51
2019-05-07T16:20:24.039Z,49.39
2019-05-07T16:23:10.855Z,50.03
2019-05-07T16:25:30.110Z,50.00
2019-05-07T16:28:02.134Z,50.25
2019-05-07T16:30:32.747Z,49.99
2019-05-07T16:33:03.236Z,50.34
2019-05-07T16:35:33.724Z,51.20
2019-05-07T16:38:04.568Z,51.08
2019-05-07T16:40:35.062Z,50.55
2019-05-07T16:43:05.507Z,51.17
2019-05-07T16:45:35.994Z,51.09
2019-05-07T16:48:06.486Z,50.86
2019-05-07T16:50:37.085Z,51.10
2019-05-07T16:53:07.582Z,51.42
2019-05-07T16:55:38.028Z,51.40
2019-05-07T16:58:25.322Z,51.26
2019-05-07T17:01:00.176Z,51.57
2019-05-07T17:03:36.468Z,51.55
2019-05-07T17:06:06.917Z,51.73
2019-05-07T17:08:51.832Z,52.04
2019-05-07T17:11:22.698Z,51.94
2019-05-07T17:13:53.222Z,51.91
2019-05-07T17:16:24.046Z,51.60
2019-05-07T17:18:54.546Z,51.55
2019-05-07T17:21:25.153Z,51.68
2019-05-07T17:23:55.741Z,52.11
2019-05-07T17:26:26.213Z,51.91
2019-05-07T17:28:56.662Z,51.70
2019-05-07T17:31:27.156Z,51.70
2019-05-07T17:33:57.642Z,52.06
2019-05-07T17:36:28.149Z,51.76
2019-05-07T17:38:58.669Z,51.70
2019-05-07T17:41:29.242Z,51.72
2019-05-07T17:43:59.708Z,52.10
2019-05-07T17:46:32.160Z,52.41
2019-05-07T17:49:02.623Z,51.73
2019-05-07T17:51:44.507Z,52.01
2019-05-07T17:54:15.524Z,52.40
2019-05-07T17:56:45.986Z,52.13
2019-05-07T17:59:16.479Z,51.88
2019-05-07T18:01:57.957Z,52.42
2019-05-07T18:04:28.942Z,52.07
2019-05-07T18:07:00.571Z,51.64
2019-05-07T18:09:31.977Z,51.77
2019-05-07T18:12:02.447Z,51.62
2019-05-07T18:14:32.902Z,51.60
2019-05-07T18:17:33.502Z,51.76
2019-05-07T18:20:03.642Z,51.03
2019-05-07T18:22:34.290Z,51.51
2019-05-07T18:25:05.033Z,51.23
2019-05-07T18:27:35.634Z,50.87
2019-05-07T18:30:06.731Z,50.88
2019-05-07T18:32:42.686Z,50.96
2019-05-07T18:35:13.346Z,51.17
2019-05-07T18:37:52.893Z,50.99
2019-05-07T18:40:23.741Z,50.96
2019-05-07T18:42:54.333Z,50.98
2019-05-07T18:45:24.900Z,50.88
2019-05-07T18:47:55.386Z,51.22
2019-05-07T18:50:25.897Z,51.07
2019-05-07T18:52:56.388Z,51.09
2019-05-07T18:55:26.876Z,50.37
2019-05-07T18:57:57.437Z,50.63
2019-05-07T19:00:31.967Z,50.34
2019-05-07T19:03:03.440Z,50.41
2019-05-07T19:05:34.194Z,50.67
2019-05-07T19:08:08.296Z,50.67
2019-05-07T19:10:37.119Z,50.70
2019-05-07T19:13:07.780Z,50.75
2019-05-07T19:15:38.257Z,50.78
2019-05-07T19:18:08.801Z,50.46
2019-05-07T19:20:39.298Z,50.70
2019-05-07T19:23:09.845Z,50.40
2019-05-07T19:25:42.059Z,50.63
2019-05-07T19:28:14.934Z,50.99
2019-05-07T19:30:44.792Z,50.65
2019-05-07T19:33:15.352Z,50.79
2019-05-07T19:35:45.845Z,51.06
2019-05-07T19:38:16.303Z,50.71
2019-05-07T19:40:46.890Z,50.86
2019-05-07T19:43:17.372Z,50.75
2019-05-07T19:45:47.819Z,50.58
2019-05-07T19:48:18.310Z,51.29
2019-05-07T19:50:48.848Z,50.79
2019-05-07T19:53:21.302Z,50.95
2019-05-07T19:56:06.893Z,50.60
2019-05-07T19:58:37.497Z,50.42
2019-05-07T20:01:09.360Z,50.29
2019-05-07T20:03:39.856Z,50.47
2019-05-07T20:06:12.684Z,50.79
2019-05-07T20:08:43.749Z,50.95
2019-05-07T20:11:22.426Z,50.71
2019-05-07T20:13:53.148Z,50.66
2019-05-07T20:16:23.632Z,50.81
2019-05-07T20:18:54.076Z,50.62
2019-05-07T20:21:24.688Z,50.73
2019-05-07T20:23:55.144Z,51.07
2019-05-07T20:26:25.638Z,51.01
2019-05-07T20:28:56.141Z,50.82
2019-05-07T20:31:26.735Z,50.95
2019-05-07T20:33:57.201Z,51.13
2019-05-07T20:36:27.705Z,51.44
2019-05-07T20:38:58.159Z,51.73
2019-05-07T20:41:28.649Z,51.54
2019-05-07T20:43:59.094Z,52.09
2019-05-07T20:46:31.748Z,52.00
2019-05-07T20:49:02.925Z,51.63
2019-05-07T20:51:33.600Z,51.90
2019-05-07T20:54:23.141Z,52.05
2019-05-07T20:56:58.788Z,52.16
2019-05-07T20:59:29.225Z,52.07
2019-05-07T21:01:59.713Z,52.58
2019-05-07T21:04:30.263Z,52.30
2019-05-07T21:07:03.772Z,52.12
2019-05-07T21:09:34.297Z,52.50
2019-05-07T21:12:04.846Z,52.66
2019-05-07T21:14:35.338Z,52.64
2019-05-07T21:17:05.819Z,52.33
2019-05-07T21:19:36.310Z,52.72
2019-05-07T21:22:06.795Z,52.56
2019-05-07T21:24:37.264Z,52.51
2019-05-07T21:27:07.771Z,52.65
2019-05-07T21:29:38.225Z,52.63
2019-05-07T21:32:08.684Z,52.74
2019-05-07T21:34:39.284Z,53.18
2019-05-07T21:37:09.745Z,53.00
2019-05-07T21:39:42.254Z,53.10
2019-05-07T21:42:14.292Z,53.48
2019-05-07T21:44:44.500Z,53.10
2019-05-07T21:47:14.957Z,52.67
2019-05-07T21:49:45.397Z,52.40
2019-05-07T21:52:15.892Z,52.93
2019-05-07T21:54:58.988Z,52.63
2019-05-07T21:57:39.744Z,52.63
2019-05-07T22:00:18.890Z,52.74
2019-05-07T22:02:49.437Z,53.11
2019-05-07T22:05:22.293Z,52.65
2019-05-07T22:07:54.361Z,53.07
2019-05-07T22:10:24.693Z,52.82
2019-05-07T22:12:55.185Z,52.71
2019-05-07T22:15:25.703Z,52.92
2019-05-07T22:17:56.201Z,52.69
2019-05-07T22:20:26.698Z,52.15
2019-05-07T22:22:57.200Z,52.31
2019-05-07T22:25:27.648Z,52.10
2019-05-07T22:27:58.141Z,52.10
2019-05-07T22:30:52.626Z,52.13
2019-05-07T22:33:31.224Z,52.18
2019-05-07T22:36:01.882Z,51.98
2019-05-07T22:38:32.444Z,52.19
2019-05-07T22:41:02.973Z,51.87
2019-05-07T22:43:33.463Z,51.78
2019-05-07T22:46:03.904Z,51.56
2019-05-07T22:48:34.379Z,51.44
2019-05-07T22:51:04.856Z,51.44
2019-05-07T22:53:35.301Z,51.09
2019-05-07T22:56:05.789Z,51.24
2019-05-07T22:58:43.517Z,51.50
2019-05-07T23:01:13.988Z,51.72
2019-05-07T23:03:44.493Z,51.99
2019-05-07T23:06:14.973Z,52.00
2019-05-07T23:08:45.413Z,51.73
2019-05-07T23:11:15.953Z,51.68
2019-05-07T23:13:46.443Z,51.68
2019-05-07T23:16:16.931Z,51.50
2019-05-07T23:18:47.377Z,51.69
2019-05-07T23:21:17.863Z,51.82
2019-05-07T23:23:48.323Z,51.60
2019-05-07T23:26:18.807Z,52.02
2019-05-07T23:28:49.288Z,51.70
2019-05-07T23:31:19.764Z,52.11
2019-05-07T23:33:52.190Z,52.14
2019-05-07T23:36:22.670Z,52.07
2019-05-07T23:38:53.130Z,51.91
2019-05-07T23:41:38.478Z,51.89
2019-05-07T23:44:14.027Z,51.60
2019-05-07T23:46:45.014Z,51.32
2019-05-07T23:49:15.624Z,51.73
2019-05-07T23:51:46.205Z,51.89
2019-05-07T23:54:16.675Z,52.01
2019-05-07T23:56:47.113Z,51.63
2019-05-07T23:59:17.586Z,51.51
